Time;durP1;ratioP1;P1;durP2;ratioP2;P2;SDS_P1;SDS_P2;PMS_P1;PMS_P2;Temp;Humidity;BMP_temperature;BMP_pressure;BME280_temperature;BME280_humidity;BME280_pressure;Samples;Min_cycle;Max_cycle;Signal;HPM_P1;HPM_P2
2023/09/19 00:01:44;;;;;;;7.03;1.20;;;10.60;99.90;;;;;;4979855;28;20488;-96
2023/09/19 00:04:10;;;;;;;9.27;1.50;;;10.60;99.90;;;;;;4979713;28;20085;-94
2023/09/19 00:06:37;;;;;;;8.63;1.50;;;10.60;99.90;;;;;;4978144;28;20042;-94
2023/09/19 00:09:03;;;;;;;9.70;1.40;;;10.60;99.90;;;;;;4978544;28;20080;-93
2023/09/19 00:11:29;;;;;;;5.78;1.40;;;10.60;99.90;;;;;;4978849;28;20057;-93
2023/09/19 00:13:55;;;;;;;5.25;1.10;;;10.60;99.90;;;;;;4983796;28;20023;-92
2023/09/19 00:16:21;;;;;;;7.93;1.88;;;10.70;99.90;;;;;;5005401;28;20057;-93
2023/09/19 00:18:48;;;;;;;7.00;1.60;;;10.70;99.90;;;;;;4986403;28;20117;-93
2023/09/19 00:21:15;;;;;;;5.20;1.20;;;10.80;99.90;;;;;;4987414;28;20083;-94
2023/09/19 00:23:41;;;;;;;6.05;1.92;;;10.80;99.90;;;;;;4980572;28;20027;-94
2023/09/19 00:26:07;;;;;;;10.07;1.48;;;10.80;99.90;;;;;;4979621;28;20396;-95
2023/09/19 00:28:33;;;;;;;10.38;1.20;;;10.80;99.90;;;;;;4985692;28;20018;-95
2023/09/19 00:31:01;;;;;;;14.10;1.45;;;10.80;99.90;;;;;;4991553;28;20053;-95
2023/09/19 00:33:31;;;;;;;8.52;1.92;;;10.80;99.90;;;;;;4998005;28;20038;-92
2023/09/19 00:36:02;;;;;;;9.00;1.70;;;10.80;99.90;;;;;;4993652;28;20034;-95
2023/09/19 00:38:27;;;;;;;8.27;1.40;;;10.80;99.90;;;;;;4997138;28;20073;-91
2023/09/19 00:40:54;;;;;;;6.50;1.40;;;10.80;99.90;;;;;;4994070;28;20030;-95
2023/09/19 00:43:22;;;;;;;9.18;1.60;;;10.80;99.90;;;;;;4982746;28;20092;-94
2023/09/19 00:45:51;;;;;;;7.70;1.38;;;10.80;99.90;;;;;;4978277;28;20175;-95
2023/09/19 00:48:18;;;;;;;10.20;1.70;;;10.80;99.90;;;;;;4978888;28;20030;-93
2023/09/19 00:50:45;;;;;;;12.95;2.25;;;10.80;99.90;;;;;;4978872;28;20027;-94
2023/09/19 00:53:15;;;;;;;8.27;1.52;;;10.80;99.90;;;;;;4979417;28;20069;-93
2023/09/19 00:55:42;;;;;;;10.40;1.88;;;10.80;99.90;;;;;;4978448;28;20026;-95
2023/09/19 00:58:10;;;;;;;8.27;1.50;;;10.80;99.90;;;;;;4978948;28;20026;-96
2023/09/19 01:00:35;;;;;;;14.50;2.47;;;10.80;99.90;;;;;;4979144;28;20101;-94
2023/09/19 01:03:02;;;;;;;12.10;2.92;;;10.80;99.90;;;;;;4978742;28;20070;-95
2023/09/19 01:05:28;;;;;;;11.48;1.75;;;10.80;99.90;;;;;;4979245;28;20084;-94
2023/09/19 01:07:54;;;;;;;10.90;1.58;;;10.80;99.90;;;;;;4978582;28;20026;-94
2023/09/19 01:10:20;;;;;;;11.82;1.73;;;10.80;99.90;;;;;;4978815;28;20125;-94
2023/09/19 01:13:11;;;;;;;10.90;1.65;;;10.80;99.90;;;;;;4977797;28;20022;-94
2023/09/19 01:15:40;;;;;;;15.00;1.75;;;10.80;99.90;;;;;;4978039;28;20427;-94
2023/09/19 01:18:42;;;;;;;10.30;1.70;;;10.90;99.90;;;;;;4980133;28;20023;-94
2023/09/19 01:21:30;;;;;;;12.82;2.25;;;10.90;99.90;;;;;;4969285;28;20104;-95
2023/09/19 01:24:35;;;;;;;13.35;1.67;;;10.80;99.90;;;;;;4977750;28;20026;-95
2023/09/19 01:27:36;;;;;;;11.18;1.80;;;10.90;99.90;;;;;;4977083;28;20130;-95
2023/09/19 01:30:11;;;;;;;9.18;1.65;;;10.90;99.90;;;;;;4978583;28;20022;-94
2023/09/19 01:32:39;;;;;;;13.55;2.05;;;10.90;99.90;;;;;;4977681;28;20476;-96
2023/09/19 01:35:05;;;;;;;12.40;2.10;;;10.90;99.90;;;;;;4982232;28;20488;-95
2023/09/19 01:37:31;;;;;;;10.95;1.50;;;10.90;99.90;;;;;;4979349;28;20023;-95
2023/09/19 01:40:11;;;;;;;9.85;1.88;;;10.90;99.90;;;;;;4978398;28;20091;-95
2023/09/19 01:42:59;;;;;;;15.30;2.35;;;10.90;99.90;;;;;;4978622;28;20045;-95
2023/09/19 01:45:49;;;;;;;18.50;2.78;;;11.00;99.90;;;;;;4979959;28;20109;-93
2023/09/19 01:48:46;;;;;;;10.98;1.92;;;11.00;99.90;;;;;;4979779;28;20106;-93
2023/09/19 01:51:19;;;;;;;13.35;2.10;;;11.00;99.90;;;;;;4980389;28;20054;-96
2023/09/19 01:53:58;;;;;;;12.70;2.88;;;11.00;99.90;;;;;;4980703;28;20063;-95
2023/09/19 01:56:40;;;;;;;16.75;2.20;;;11.00;99.90;;;;;;5005394;28;20023;-95
2023/09/19 01:59:21;;;;;;;16.83;2.13;;;11.10;99.90;;;;;;4992279;28;20022;-94
2023/09/19 02:01:49;;;;;;;11.13;2.50;;;11.10;99.90;;;;;;4990613;28;20094;-94
2023/09/19 02:04:15;;;;;;;20.08;2.65;;;11.10;99.90;;;;;;4993021;28;20026;-94
2023/09/19 02:06:42;;;;;;;16.35;3.00;;;11.10;99.90;;;;;;4996115;28;20036;-95
2023/09/19 02:09:08;;;;;;;14.35;2.20;;;11.10;99.90;;;;;;4985560;28;20061;-94
2023/09/19 02:11:35;;;;;;;15.30;2.65;;;11.20;99.90;;;;;;4984175;28;20026;-93
2023/09/19 02:14:02;;;;;;;12.45;1.98;;;11.20;99.90;;;;;;4982206;28;20054;-94
2023/09/19 02:16:29;;;;;;;17.52;2.33;;;11.20;99.90;;;;;;4970279;28;20054;-94
2023/09/19 02:18:55;;;;;;;16.15;2.08;;;11.20;99.90;;;;;;4991012;28;20027;-94
2023/09/19 02:21:21;;;;;;;15.32;3.10;;;11.20;99.90;;;;;;4997779;28;20037;-92
2023/09/19 02:23:47;;;;;;;15.90;2.58;;;11.20;99.90;;;;;;4995034;28;20027;-92
2023/09/19 02:26:13;;;;;;;12.77;2.28;;;11.20;99.90;;;;;;4990700;28;20089;-93
2023/09/19 02:28:39;;;;;;;21.95;5.18;;;11.20;99.90;;;;;;4990511;28;20117;-94
2023/09/19 02:31:05;;;;;;;22.50;3.05;;;11.20;99.90;;;;;;4984477;28;20054;-94
2023/09/19 02:33:32;;;;;;;23.83;2.20;;;11.20;99.90;;;;;;4984125;28;20030;-93
2023/09/19 02:35:58;;;;;;;15.73;2.75;;;11.20;99.90;;;;;;4982093;28;20026;-95
2023/09/19 02:38:25;;;;;;;17.13;2.65;;;11.20;99.90;;;;;;4982489;28;20027;-93
2023/09/19 02:40:52;;;;;;;13.95;3.05;;;11.20;99.90;;;;;;4982758;28;20070;-93
2023/09/19 02:43:19;;;;;;;12.02;2.17;;;11.20;99.90;;;;;;4999701;28;20022;-94
2023/09/19 02:45:46;;;;;;;18.98;2.80;;;11.20;99.90;;;;;;4977703;28;20193;-95
2023/09/19 02:48:12;;;;;;;14.77;2.33;;;11.20;99.90;;;;;;4977658;28;20034;-95
2023/09/19 02:50:40;;;;;;;19.40;2.63;;;11.20;99.90;;;;;;4962520;28;20046;-93
2023/09/19 02:53:06;;;;;;;11.65;2.33;;;11.20;99.90;;;;;;4978716;28;20034;-94
2023/09/19 02:55:32;;;;;;;18.50;2.33;;;11.20;99.90;;;;;;4980491;28;20037;-95
2023/09/19 02:57:58;;;;;;;13.95;2.35;;;11.20;99.90;;;;;;4979052;28;20020;-95
2023/09/19 03:00:24;;;;;;;12.55;2.40;;;11.20;99.90;;;;;;4986056;28;20057;-95
2023/09/19 03:02:50;;;;;;;18.55;2.83;;;11.20;99.90;;;;;;4988361;28;20027;-94
2023/09/19 03:05:16;;;;;;;15.25;2.00;;;11.20;99.90;;;;;;4984724;28;20484;-94
2023/09/19 03:07:43;;;;;;;13.07;2.72;;;11.20;99.90;;;;;;4986390;28;20034;-95
2023/09/19 03:10:09;;;;;;;12.23;1.80;;;11.20;99.90;;;;;;4979578;28;20029;-92
2023/09/19 03:12:35;;;;;;;13.27;2.53;;;11.20;99.90;;;;;;4976412;28;20035;-95
2023/09/19 03:15:04;;;;;;;14.43;3.25;;;11.20;99.90;;;;;;4978924;28;20027;-94
2023/09/19 03:17:30;;;;;;;16.75;2.90;;;11.30;99.90;;;;;;4977895;28;20109;-93
2023/09/19 03:19:57;;;;;;;19.63;2.50;;;11.30;99.90;;;;;;4976408;28;20061;-95
2023/09/19 03:22:24;;;;;;;20.35;2.75;;;11.30;99.90;;;;;;4976426;28;20061;-92
2023/09/19 03:24:50;;;;;;;17.27;3.03;;;11.30;99.90;;;;;;4975837;28;20027;-94
2023/09/19 03:27:16;;;;;;;16.08;3.00;;;11.30;99.90;;;;;;4975351;28;20045;-92
2023/09/19 03:29:42;;;;;;;13.35;2.60;;;11.30;99.90;;;;;;4975966;28;20026;-92
2023/09/19 03:32:11;;;;;;;18.05;2.78;;;11.30;99.90;;;;;;4976506;28;20073;-94
2023/09/19 03:34:41;;;;;;;20.52;3.00;;;11.40;99.90;;;;;;4976338;28;20054;-94
2023/09/19 03:37:07;;;;;;;16.17;3.53;;;11.40;99.90;;;;;;4979564;28;20090;-94
2023/09/19 03:39:33;;;;;;;18.65;2.53;;;11.40;99.90;;;;;;4979573;28;20166;-94
2023/09/19 03:41:58;;;;;;;14.13;2.40;;;11.30;99.90;;;;;;4980565;28;20031;-94
2023/09/19 03:44:24;;;;;;;16.35;2.80;;;11.30;99.90;;;;;;5003132;28;20037;-94
2023/09/19 03:46:50;;;;;;;21.58;2.47;;;11.30;99.90;;;;;;5005152;28;20045;-94
2023/09/19 03:49:15;;;;;;;11.38;2.20;;;11.30;99.90;;;;;;5000935;28;20387;-93
2023/09/19 03:51:41;;;;;;;15.13;2.80;;;11.20;99.90;;;;;;5002849;28;20037;-95
2023/09/19 03:54:07;;;;;;;17.83;2.55;;;11.20;99.90;;;;;;5004502;28;20037;-92
2023/09/19 03:56:33;;;;;;;17.08;3.55;;;11.20;99.90;;;;;;5002679;28;20077;-95
2023/09/19 03:59:00;;;;;;;15.82;2.22;;;11.20;99.90;;;;;;5005366;28;20033;-95
2023/09/19 04:01:27;;;;;;;18.75;2.60;;;11.10;99.90;;;;;;5010834;28;20040;-94
2023/09/19 04:03:56;;;;;;;17.08;3.15;;;11.10;99.90;;;;;;5019732;28;20033;-92
2023/09/19 04:06:22;;;;;;;14.32;2.40;;;11.10;99.90;;;;;;5019406;28;20029;-93
2023/09/19 04:08:48;;;;;;;10.13;1.83;;;11.10;99.90;;;;;;5010923;28;20061;-94
2023/09/19 04:11:14;;;;;;;9.20;2.15;;;11.00;99.90;;;;;;5007686;28;20030;-95
2023/09/19 04:13:40;;;;;;;13.80;2.38;;;11.00;99.90;;;;;;5025071;28;20054;-93
2023/09/19 04:16:10;;;;;;;13.30;2.15;;;11.00;99.90;;;;;;5005584;28;20026;-94
2023/09/19 04:18:38;;;;;;;14.30;2.55;;;11.00;99.90;;;;;;4998954;28;20092;-94
2023/09/19 04:21:05;;;;;;;11.10;2.10;;;11.00;99.90;;;;;;4997765;28;20117;-93
2023/09/19 04:23:34;;;;;;;14.75;3.13;;;10.90;99.90;;;;;;4998688;28;20061;-94
2023/09/19 04:26:00;;;;;;;12.30;2.40;;;10.80;99.90;;;;;;5018318;28;20529;-96
2023/09/19 04:28:27;;;;;;;15.15;2.63;;;10.80;99.90;;;;;;5001521;28;20029;-94
2023/09/19 04:30:53;;;;;;;14.82;2.50;;;10.80;99.90;;;;;;5002442;28;20026;-96
2023/09/19 04:33:19;;;;;;;13.88;2.80;;;10.80;99.90;;;;;;5001984;28;20037;-91
2023/09/19 04:35:44;;;;;;;10.25;2.35;;;10.80;99.90;;;;;;5003455;28;20097;-95
2023/09/19 04:38:11;;;;;;;16.42;2.88;;;10.80;99.90;;;;;;4999389;28;20167;-96
2023/09/19 04:40:39;;;;;;;13.23;2.50;;;10.70;99.90;;;;;;4999889;28;20033;-94
2023/09/19 04:43:05;;;;;;;11.38;2.25;;;10.70;99.90;;;;;;4999448;28;20376;-93
2023/09/19 04:45:31;;;;;;;12.63;1.90;;;10.70;99.90;;;;;;5016318;28;20038;-95
2023/09/19 04:47:57;;;;;;;11.15;2.30;;;10.70;99.90;;;;;;4997899;28;20029;-94
2023/09/19 04:50:24;;;;;;;10.88;1.77;;;10.70;99.90;;;;;;4997252;28;20033;-94
2023/09/19 04:52:50;;;;;;;9.73;2.05;;;10.70;99.90;;;;;;4997301;28;20038;-94
2023/09/19 04:55:18;;;;;;;17.40;2.58;;;10.60;99.90;;;;;;4997978;28;20092;-93
2023/09/19 04:57:48;;;;;;;12.20;2.20;;;10.60;99.90;;;;;;4997572;28;20030;-94
2023/09/19 05:00:24;;;;;;;10.13;2.03;;;10.60;99.90;;;;;;5016174;28;20109;-92
2023/09/19 05:02:51;;;;;;;11.65;2.10;;;10.60;99.90;;;;;;4997589;28;20026;-94
2023/09/19 05:05:18;;;;;;;16.33;2.28;;;10.60;99.90;;;;;;4996084;28;20499;-95
2023/09/19 05:07:46;;;;;;;12.40;1.85;;;10.60;99.90;;;;;;4996633;28;20037;-95
2023/09/19 05:10:12;;;;;;;11.73;1.88;;;10.60;99.90;;;;;;4997251;28;20176;-95
2023/09/19 05:12:38;;;;;;;19.33;3.15;;;10.60;99.90;;;;;;4997590;28;20040;-95
2023/09/19 05:15:07;;;;;;;21.05;3.00;;;10.50;99.90;;;;;;4996948;28;20021;-95
2023/09/19 05:17:33;;;;;;;17.15;2.20;;;10.50;99.90;;;;;;4996974;28;20109;-95
2023/09/19 05:20:00;;;;;;;12.13;2.35;;;10.50;99.90;;;;;;4997370;28;20479;-95
2023/09/19 05:22:29;;;;;;;12.93;2.13;;;10.50;99.90;;;;;;4997282;28;20072;-95
2023/09/19 05:24:55;;;;;;;12.77;1.88;;;10.50;99.90;;;;;;4997630;28;20026;-95
2023/09/19 05:27:20;;;;;;;13.07;1.92;;;10.50;99.90;;;;;;4996971;28;20244;-94
2023/09/19 05:29:46;;;;;;;7.85;1.98;;;10.50;99.90;;;;;;4997623;28;20022;-96
2023/09/19 05:32:12;;;;;;;9.55;2.15;;;10.50;99.90;;;;;;4997028;28;20079;-96
2023/09/19 05:34:38;;;;;;;5.43;1.17;;;10.50;99.90;;;;;;4996708;28;20476;-94
2023/09/19 05:37:08;;;;;;;6.00;1.90;;;10.60;99.90;;;;;;5001106;28;20026;-96
2023/09/19 05:39:34;;;;;;;6.95;1.48;;;10.60;99.90;;;;;;5004820;28;20022;-95
2023/09/19 05:42:00;;;;;;;6.03;1.33;;;10.60;99.90;;;;;;5001838;28;20033;-93
2023/09/19 05:44:26;;;;;;;3.50;1.00;;;10.70;99.90;;;;;;5002572;28;20026;-93
2023/09/19 05:46:53;;;;;;;7.97;1.15;;;10.70;99.90;;;;;;4999245;28;20042;-94
2023/09/19 05:49:21;;;;;;;5.03;1.40;;;10.80;99.90;;;;;;4997969;28;20030;-93
2023/09/19 05:51:47;;;;;;;7.88;2.42;;;10.90;99.90;;;;;;4997318;28;20022;-94
2023/09/19 05:54:12;;;;;;;4.85;1.48;;;11.00;99.90;;;;;;4997868;28;20026;-96
2023/09/19 05:56:38;;;;;;;6.10;1.65;;;11.00;99.90;;;;;;4998263;28;20125;-95
2023/09/19 05:59:05;;;;;;;8.77;1.35;;;11.10;99.90;;;;;;4998224;28;20498;-96
2023/09/19 06:01:32;;;;;;;11.05;1.88;;;11.20;99.90;;;;;;4997800;28;20064;-94
2023/09/19 06:04:00;;;;;;;9.15;1.83;;;11.30;99.90;;;;;;4998332;28;20365;-95
2023/09/19 06:06:26;;;;;;;6.75;2.00;;;11.40;99.90;;;;;;4998086;28;20034;-95
2023/09/19 06:08:52;;;;;;;10.10;2.15;;;11.50;99.90;;;;;;4997679;28;20017;-94
2023/09/19 06:11:20;;;;;;;7.05;1.80;;;11.50;99.90;;;;;;4997570;28;20633;-95
2023/09/19 06:13:47;;;;;;;6.55;1.58;;;11.60;99.90;;;;;;4998088;28;20022;-94
2023/09/19 06:16:13;;;;;;;5.07;1.42;;;11.70;99.90;;;;;;4998071;28;20483;-95
2023/09/19 06:18:39;;;;;;;5.60;1.63;;;11.70;99.90;;;;;;5000014;28;20026;-93
2023/09/19 06:21:07;;;;;;;4.70;1.13;;;11.80;99.90;;;;;;5002040;28;20030;-95
2023/09/19 06:23:35;;;;;;;5.60;1.70;;;11.80;99.90;;;;;;5004377;28;20033;-94
2023/09/19 06:26:01;;;;;;;4.68;1.50;;;11.90;99.90;;;;;;5005607;28;20032;-95
2023/09/19 06:28:27;;;;;;;4.30;1.58;;;11.90;99.90;;;;;;5003426;28;20029;-93
2023/09/19 06:30:54;;;;;;;5.32;1.55;;;12.00;99.90;;;;;;5003361;28;20109;-93
2023/09/19 06:33:21;;;;;;;4.07;1.38;;;12.00;99.90;;;;;;5001442;28;20034;-94
2023/09/19 06:35:47;;;;;;;6.32;1.75;;;12.10;99.90;;;;;;5002853;28;20110;-93
2023/09/19 06:38:15;;;;;;;6.47;1.95;;;12.20;99.90;;;;;;5002777;28;20030;-94
2023/09/19 06:40:42;;;;;;;8.13;1.40;;;12.20;99.90;;;;;;5003355;28;20063;-93
2023/09/19 06:43:10;;;;;;;7.82;1.45;;;12.20;99.90;;;;;;5000365;28;20071;-95
2023/09/19 06:45:36;;;;;;;7.65;2.05;;;12.30;99.90;;;;;;5001393;28;20052;-96
2023/09/19 06:48:03;;;;;;;6.68;1.83;;;12.30;99.90;;;;;;4997997;28;20669;-93
2023/09/19 06:50:30;;;;;;;6.82;1.50;;;12.30;99.90;;;;;;4999674;28;20019;-96
2023/09/19 06:52:59;;;;;;;6.93;1.30;;;12.40;99.90;;;;;;5008800;28;20048;-96
2023/09/19 06:55:27;;;;;;;7.30;1.98;;;12.40;99.90;;;;;;5002317;28;20113;-94
2023/09/19 06:57:54;;;;;;;6.18;1.67;;;12.50;99.90;;;;;;4998449;28;20029;-94
2023/09/19 07:00:21;;;;;;;4.63;1.80;;;12.60;99.90;;;;;;4997808;28;20026;-95
2023/09/19 07:03:03;;;;;;;11.55;2.28;;;12.60;99.90;;;;;;5016074;28;20030;-92
2023/09/19 07:05:31;;;;;;;9.82;2.10;;;12.70;99.90;;;;;;4999810;28;20053;-96
2023/09/19 07:08:00;;;;;;;9.65;2.00;;;12.70;99.90;;;;;;5000536;28;20065;-96
2023/09/19 07:10:28;;;;;;;13.53;2.37;;;12.80;99.90;;;;;;5001369;28;20034;-95
2023/09/19 07:12:58;;;;;;;10.38;1.90;;;12.80;99.90;;;;;;5006995;28;20030;-96
2023/09/19 07:15:25;;;;;;;10.40;2.47;;;12.90;99.90;;;;;;5004109;28;20113;-96
2023/09/19 07:17:56;;;;;;;5.22;1.25;;;13.00;99.90;;;;;;5014858;28;20012;-93
2023/09/19 07:20:26;;;;;;;6.35;1.60;;;13.00;99.90;;;;;;5011103;28;20030;-92
2023/09/19 07:22:51;;;;;;;11.07;2.35;;;13.10;99.90;;;;;;5013192;28;20017;-95
2023/09/19 07:25:17;;;;;;;10.02;1.70;;;13.20;99.90;;;;;;5014347;28;20037;-96
2023/09/19 07:27:43;;;;;;;6.03;1.70;;;13.20;99.90;;;;;;5014939;28;20041;-96
2023/09/19 07:30:11;;;;;;;6.85;2.05;;;13.30;99.90;;;;;;5014954;28;20081;-95
2023/09/19 07:32:37;;;;;;;11.68;2.40;;;13.40;99.90;;;;;;5010657;28;20033;-95
2023/09/19 07:35:04;;;;;;;8.23;2.33;;;13.40;99.90;;;;;;5007689;28;20044;-93
2023/09/19 07:37:33;;;;;;;8.95;2.05;;;13.50;99.90;;;;;;5012031;28;20033;-93
2023/09/19 07:40:09;;;;;;;11.95;2.55;;;13.60;99.90;;;;;;5025759;28;20274;-95
2023/09/19 07:42:38;;;;;;;15.50;2.10;;;13.60;99.90;;;;;;5005110;28;20069;-96
2023/09/19 07:45:04;;;;;;;10.02;2.15;;;13.70;99.90;;;;;;4993254;28;20041;-96
2023/09/19 07:47:32;;;;;;;8.55;2.17;;;13.70;99.90;;;;;;5014064;28;20041;-93
2023/09/19 07:49:58;;;;;;;8.10;1.40;;;13.80;99.90;;;;;;5008638;28;20061;-95
2023/09/19 07:52:24;;;;;;;8.80;1.73;;;13.80;99.90;;;;;;5012141;28;20014;-95
2023/09/19 07:54:50;;;;;;;6.55;1.75;;;13.80;99.90;;;;;;5015520;28;20016;-94
2023/09/19 07:57:16;;;;;;;6.03;1.38;;;13.80;99.90;;;;;;5014721;28;20042;-94
2023/09/19 07:59:43;;;;;;;6.35;1.85;;;13.80;99.90;;;;;;4997417;28;20025;-95
2023/09/19 08:02:15;;;;;;;7.22;1.92;;;13.90;99.90;;;;;;4995384;28;20492;-94
2023/09/19 08:04:47;;;;;;;7.25;2.22;;;13.90;99.90;;;;;;4994889;28;20154;-94
2023/09/19 08:07:13;;;;;;;7.55;2.22;;;13.90;99.90;;;;;;5014506;28;20056;-95
2023/09/19 08:09:39;;;;;;;5.00;1.98;;;13.90;99.90;;;;;;4997330;28;20023;-95
2023/09/19 08:12:08;;;;;;;5.35;1.40;;;13.90;99.90;;;;;;4998025;28;20037;-96
2023/09/19 08:14:33;;;;;;;4.80;1.60;;;14.00;99.90;;;;;;5006140;28;20018;-96
2023/09/19 08:17:00;;;;;;;6.78;1.70;;;14.00;99.90;;;;;;4993687;28;20089;-96
2023/09/19 08:19:31;;;;;;;7.00;1.85;;;14.00;99.90;;;;;;5000044;28;20026;-95
2023/09/19 08:21:59;;;;;;;;;;;14.10;99.90;;;;;;4994654;28;20435;-96
2023/09/19 08:24:29;;;;;;;5.18;2.67;;;14.10;99.90;;;;;;4999438;28;19905;-96
2023/09/19 08:26:56;;;;;;;4.97;1.27;;;14.10;99.90;;;;;;4997460;28;20037;-96
2023/09/19 08:29:27;;;;;;;4.30;1.00;;;14.20;99.90;;;;;;4993561;28;20030;-96
2023/09/19 08:31:54;;;;;;;4.72;1.08;;;14.20;99.90;;;;;;4997938;28;20118;-94
2023/09/19 08:34:21;;;;;;;4.28;1.00;;;14.30;99.90;;;;;;5006848;28;20022;-96
2023/09/19 08:36:47;;;;;;;4.30;1.20;;;14.30;99.90;;;;;;5011812;28;20038;-96
2023/09/19 08:39:13;;;;;;;2.03;0.95;;;14.30;99.90;;;;;;5006894;28;20018;-95
2023/09/19 08:41:39;;;;;;;2.55;1.10;;;14.30;99.90;;;;;;4993733;28;20030;-95
2023/09/19 08:44:10;;;;;;;2.88;0.68;;;14.30;99.90;;;;;;5018203;28;20033;-96
2023/09/19 08:46:41;;;;;;;4.07;0.80;;;14.30;99.90;;;;;;5006000;28;20045;-95
2023/09/19 08:49:25;;;;;;;1.17;0.40;;;14.30;99.90;;;;;;5004596;28;20025;-96
2023/09/19 08:52:05;;;;;;;1.65;0.85;;;14.30;99.90;;;;;;4996218;28;20021;-96
2023/09/19 08:54:40;;;;;;;2.40;0.60;;;14.30;99.90;;;;;;5002302;28;20061;-96
2023/09/19 08:57:11;;;;;;;5.88;1.13;;;14.40;99.90;;;;;;5001564;28;20098;-95
2023/09/19 08:59:43;;;;;;;2.60;0.80;;;14.40;99.90;;;;;;5000347;28;20030;-95
2023/09/19 09:02:13;;;;;;;2.05;0.88;;;14.50;99.90;;;;;;5004944;28;20097;-95
2023/09/19 09:04:41;;;;;;;5.30;1.27;;;14.50;99.90;;;;;;4997685;28;20023;-95
2023/09/19 09:07:12;;;;;;;2.85;0.77;;;14.70;99.90;;;;;;4987070;28;20038;-94
2023/09/19 09:09:42;;;;;;;1.30;0.85;;;14.80;99.90;;;;;;5002055;28;20026;-95
2023/09/19 09:12:12;;;;;;;8.65;1.42;;;14.90;99.90;;;;;;4993474;28;20125;-95
2023/09/19 09:14:38;;;;;;;2.13;1.08;;;15.00;99.90;;;;;;4994884;28;20018;-95
2023/09/19 09:17:04;;;;;;;4.38;1.00;;;15.00;99.90;;;;;;4993948;28;20030;-95
2023/09/19 09:19:31;;;;;;;2.78;1.00;;;15.10;99.90;;;;;;4993203;28;20030;-94
2023/09/19 09:22:09;;;;;;;0.85;0.65;;;15.20;99.90;;;;;;4993501;28;20038;-96
2023/09/19 09:24:37;;;;;;;1.40;0.70;;;15.30;99.90;;;;;;4994753;28;20029;-94
2023/09/19 09:27:10;;;;;;;0.70;0.55;;;15.50;99.90;;;;;;4993230;28;20490;-94
2023/09/19 09:29:49;;;;;;;1.25;0.60;;;15.60;99.90;;;;;;4990338;28;20026;-95
2023/09/19 09:32:25;;;;;;;1.23;0.43;;;15.90;99.90;;;;;;4994223;28;20049;-95
2023/09/19 09:34:56;;;;;;;2.17;0.52;;;16.00;99.90;;;;;;4991534;28;20049;-94
2023/09/19 09:37:24;;;;;;;2.83;0.50;;;16.10;99.90;;;;;;4994505;28;20022;-96
2023/09/19 09:39:56;;;;;;;0.30;0.30;;;16.10;99.90;;;;;;4999059;28;20027;-94
2023/09/19 09:42:35;;;;;;;1.27;0.38;;;16.10;99.90;;;;;;5003425;28;20053;-95
2023/09/19 09:47:59;;;;;;;1.27;0.40;;;16.20;99.90;;;;;;5008801;28;20042;-94
2023/09/19 09:50:39;;;;;;;1.08;0.30;;;16.30;99.90;;;;;;4997992;28;20022;-94
2023/09/19 09:53:30;;;;;;;0.10;0.05;;;16.30;99.90;;;;;;5004280;28;20030;-96
2023/09/19 09:56:07;;;;;;;3.65;0.10;;;16.50;99.90;;;;;;5005295;28;20133;-96
2023/09/19 09:58:35;;;;;;;0.80;0.20;;;16.70;99.90;;;;;;5009482;28;20026;-94
2023/09/19 10:01:20;;;;;;;1.75;0.20;;;17.00;99.90;;;;;;5005479;28;20089;-95
2023/09/19 10:03:51;;;;;;;2.50;0.10;;;17.10;99.90;;;;;;4998402;28;20029;-94
2023/09/19 10:09:19;;;;;;;0.40;0.10;;;17.60;99.90;;;;;;5025466;28;20117;-96
2023/09/19 10:12:05;;;;;;;0.00;0.00;;;17.90;99.90;;;;;;4997357;28;20022;-96
2023/09/19 10:14:35;;;;;;;1.42;0.08;;;18.10;99.90;;;;;;5004554;28;20033;-95
2023/09/19 10:17:09;;;;;;;2.25;0.20;;;18.30;99.90;;;;;;4996409;28;20142;-95
2023/09/19 10:20:04;;;;;;;0.98;0.20;;;18.50;99.90;;;;;;4995251;28;20124;-95
2023/09/19 10:22:32;;;;;;;2.47;0.28;;;18.70;99.90;;;;;;4993147;28;20057;-93
2023/09/19 10:24:59;;;;;;;0.08;0.00;;;18.80;99.90;;;;;;4997827;28;20029;-96
2023/09/19 10:27:26;;;;;;;0.85;0.10;;;18.80;99.90;;;;;;4997079;28;20045;-93
2023/09/19 10:29:57;;;;;;;0.10;0.00;;;18.80;99.90;;;;;;5000507;28;20049;-93
2023/09/19 10:32:23;;;;;;;;;;;18.90;99.90;;;;;;5005740;28;20030;-95
2023/09/19 10:34:49;;;;;;;0.10;0.10;;;18.90;99.90;;;;;;5023300;28;19905;-93
2023/09/19 10:37:18;;;;;;;2.38;0.20;;;18.80;99.90;;;;;;5032907;28;20120;-94
2023/09/19 10:39:48;;;;;;;0.00;0.00;;;18.80;99.90;;;;;;5041894;28;20087;-94
2023/09/19 10:42:20;;;;;;;4.00;0.20;;;18.70;99.90;;;;;;5040236;28;20044;-94
2023/09/19 10:44:55;;;;;;;0.22;0.22;;;18.70;99.90;;;;;;5022239;28;20045;-95
2023/09/19 10:47:24;;;;;;;1.85;0.20;;;18.70;99.90;;;;;;5007430;28;20049;-96
2023/09/19 10:49:50;;;;;;;0.40;0.13;;;18.70;99.90;;;;;;5004187;28;20034;-96
2023/09/19 10:52:20;;;;;;;0.88;0.10;;;18.70;99.90;;;;;;4995999;28;20030;-94
2023/09/19 10:54:52;;;;;;;0.73;0.10;;;18.70;99.90;;;;;;5019753;28;20032;-96
2023/09/19 10:57:27;;;;;;;1.83;0.40;;;18.60;99.90;;;;;;5012721;28;20029;-95
2023/09/19 11:00:22;;;;;;;1.33;0.10;;;18.60;99.90;;;;;;5024211;28;20026;-93
2023/09/19 11:03:13;;;;;;;0.08;0.03;;;18.60;99.90;;;;;;5045209;28;20036;-94
2023/09/19 11:05:41;;;;;;;0.00;0.00;;;18.60;99.90;;;;;;5025742;28;20029;-93
2023/09/19 11:08:12;;;;;;;0.45;0.28;;;18.50;99.90;;;;;;5028518;28;20022;-94
2023/09/19 11:10:51;;;;;;;0.32;0.28;;;18.40;99.90;;;;;;5007978;28;20124;-95
2023/09/19 11:13:34;;;;;;;4.95;0.30;;;18.50;99.90;;;;;;5004232;28;20034;-95
2023/09/19 11:16:05;;;;;;;0.90;0.20;;;18.40;99.90;;;;;;5002683;28;20034;-90
2023/09/19 11:18:43;;;;;;;0.90;0.20;;;18.40;99.90;;;;;;5011531;28;20053;-95
2023/09/19 11:21:36;;;;;;;1.98;0.25;;;18.30;99.90;;;;;;5005954;28;20038;-93
2023/09/19 11:24:25;;;;;;;0.63;0.20;;;18.20;99.90;;;;;;5042028;28;20053;-87
2023/09/19 11:26:53;;;;;;;0.77;0.20;;;18.20;99.90;;;;;;5027322;28;20069;-88
2023/09/19 11:29:26;;;;;;;0.40;0.10;;;18.10;99.90;;;;;;5007839;28;20048;-88
2023/09/19 11:31:59;;;;;;;1.48;0.65;;;18.10;99.90;;;;;;5015760;28;20033;-92
2023/09/19 11:34:37;;;;;;;0.40;0.28;;;18.10;99.90;;;;;;5014574;28;20039;-89
2023/09/19 11:37:11;;;;;;;0.68;0.20;;;18.10;99.90;;;;;;5021866;28;20037;-91
2023/09/19 11:39:38;;;;;;;0.38;0.20;;;18.10;99.90;;;;;;5010482;28;20014;-87
2023/09/19 11:42:43;;;;;;;0.47;0.20;;;18.10;99.90;;;;;;5012782;28;20014;-93
2023/09/19 11:45:56;;;;;;;0.82;0.15;;;18.00;99.90;;;;;;5029367;28;20049;-88
2023/09/19 11:48:27;;;;;;;0.10;0.10;;;18.00;99.90;;;;;;5011475;28;20076;-90
2023/09/19 11:50:53;;;;;;;0.10;0.10;;;17.90;99.90;;;;;;5012735;28;20089;-91
2023/09/19 11:53:21;;;;;;;0.63;0.10;;;17.90;99.90;;;;;;5013871;28;20033;-91
2023/09/19 11:55:47;;;;;;;0.05;0.05;;;17.90;99.90;;;;;;5008530;28;20010;-89
2023/09/19 11:58:16;;;;;;;0.95;0.10;;;17.80;99.90;;;;;;5018446;28;20029;-89
2023/09/19 12:00:44;;;;;;;1.98;0.28;;;17.80;99.90;;;;;;5034214;28;20037;-94
2023/09/19 12:03:11;;;;;;;1.25;0.10;;;17.80;99.90;;;;;;5011572;28;20492;-94
2023/09/19 12:05:38;;;;;;;0.43;0.17;;;17.70;99.90;;;;;;5011360;28;20084;-96
2023/09/19 12:08:10;;;;;;;0.95;0.20;;;17.70;99.90;;;;;;5012966;28;20026;-96
2023/09/19 12:10:47;;;;;;;0.00;0.00;;;17.70;99.90;;;;;;5018459;28;20022;-96
2023/09/19 12:13:17;;;;;;;2.38;0.20;;;17.70;99.90;;;;;;5019661;28;20033;-95
2023/09/19 12:15:47;;;;;;;0.20;0.10;;;17.70;99.90;;;;;;5037858;28;20022;-96
2023/09/19 12:18:29;;;;;;;0.52;0.10;;;17.70;99.90;;;;;;5034394;28;20030;-96
2023/09/19 12:20:57;;;;;;;0.00;0.00;;;17.60;99.90;;;;;;5031983;28;20029;-95
2023/09/19 12:23:23;;;;;;;0.30;0.20;;;17.60;99.90;;;;;;5012383;28;20022;-96
2023/09/19 12:25:53;;;;;;;0.08;0.00;;;17.60;99.90;;;;;;5011851;28;20021;-96
2023/09/19 12:28:22;;;;;;;0.20;0.08;;;17.60;99.90;;;;;;5029238;28;20049;-96
2023/09/19 12:30:49;;;;;;;0.80;0.17;;;17.70;99.90;;;;;;5053254;28;20033;-96
2023/09/19 12:33:25;;;;;;;0.10;0.10;;;17.80;99.90;;;;;;5037479;28;20041;-96
2023/09/19 12:35:53;;;;;;;0.10;0.10;;;17.90;99.90;;;;;;5006029;28;20092;-96
2023/09/19 12:38:29;;;;;;;0.30;0.10;;;18.10;99.90;;;;;;5001480;28;20018;-95
2023/09/19 12:41:01;;;;;;;1.65;0.20;;;18.20;99.90;;;;;;5016431;28;20085;-96
2023/09/19 12:43:32;;;;;;;1.00;0.20;;;18.20;99.90;;;;;;5032993;28;20065;-96
2023/09/19 12:45:59;;;;;;;2.83;0.22;;;18.30;99.90;;;;;;5013602;28;20042;-95
2023/09/19 12:48:29;;;;;;;3.45;0.40;;;18.30;99.90;;;;;;5016010;28;20038;-96
2023/09/19 12:51:09;;;;;;;1.60;0.55;;;18.30;99.90;;;;;;5017438;28;20041;-95
2023/09/19 12:53:42;;;;;;;0.90;0.20;;;18.40;99.90;;;;;;5018634;28;20045;-96
2023/09/19 12:56:09;;;;;;;0.10;0.10;;;18.30;99.90;;;;;;5037877;28;20029;-94
2023/09/19 12:58:50;;;;;;;0.95;0.47;;;18.40;99.90;;;;;;5006434;28;20025;-95
2023/09/19 13:01:17;;;;;;;0.52;0.20;;;18.50;99.90;;;;;;5025945;28;20022;-96
2023/09/19 13:03:42;;;;;;;1.50;0.30;;;18.60;99.90;;;;;;5023164;28;20026;-96